»·PEaware :: N739KW KLAX-KSNA

N739KW :: KLAX-KSNA

FLIGHT INFORMATION

Flight Status: Arrived
Operator: Privately registered:
United States
More flights under this callsign
Pilot: Marat S. (26394)
Aircraft: CESSNA 172 SKYHAWK
(C172)
More flights by this aircraft type
Origin: KLAX Los Angeles Intl
United States
Destination: KSNA John Wayne-Orange Co
United States
More flights between these airports :: More routes between these airports
Route: SLI8 SLI
File this flight plan on PilotEdge
Remarks: I-6 Raiting. A student pilot
Altitude:
(Current/Filed)
4,000ft
Speed:
(Current/Filed)
100kts
Departed: 23-May-20 08:16 AM
Arrived: 23-May-20 09:25 AM
Distance/Time
Traveled:
31nm/1:09
Distance/Time
To Go:
Arrived

Flight Plot

Page will automatically refresh every two minutes.


Map Options




Map Legend


Flown Route
Filed Route
Departure Airport
Arrival Airport
Navaid (VOR, NDB)
Fix

Horizontal Profiles

Position Reports

Time Latitude Longitude Heading Altitude Ground
Speed
23-May-20 07:58 33.933633 -118.399303 174 117ft 0kts
23-May-20 07:59 33.933633 -118.399303 174 117ft 0kts
23-May-20 08:00 33.933633 -118.399303 174 117ft 0kts
23-May-20 08:01 33.933633 -118.399303 174 117ft 0kts
23-May-20 08:02 33.933633 -118.399303 174 117ft 0kts
23-May-20 08:03 33.933633 -118.399303 174 117ft 0kts
23-May-20 08:04 33.933633 -118.399303 174 117ft 0kts
23-May-20 08:05 33.933633 -118.399303 174 117ft 0kts
23-May-20 08:06 33.933633 -118.399303 174 117ft 0kts
23-May-20 08:07 33.933606 -118.398813 84 117ft 6kts
23-May-20 08:08 33.934659 -118.396918 84 111ft 9kts
23-May-20 08:09 33.935073 -118.393056 83 106ft 13kts
23-May-20 08:10 33.935564 -118.388248 82 103ft 12kts
23-May-20 08:11 33.936032 -118.383705 83 100ft 13kts
23-May-20 08:12 33.936452 -118.382814 6 99ft 0kts
23-May-20 08:13 33.936452 -118.382814 6 99ft 0kts
23-May-20 08:14 33.937324 -118.383142 269 100ft 4kts
23-May-20 08:15 33.935869 -118.397356 266 313ft 88kts
23-May-20 08:16 33.932323 -118.428587 268 1190ft 94kts
23-May-20 08:17 33.929902 -118.460020 268 1965ft 101kts
23-May-20 08:18 33.925757 -118.492333 209 2463ft 110kts
23-May-20 08:19 33.902315 -118.512837 216 3040ft 96kts
23-May-20 08:20 33.879913 -118.532523 215 3564ft 101kts
23-May-20 08:24 33.933633 -118.399303 174 117ft 0kts
23-May-20 08:25 33.933633 -118.399303 174 117ft 0kts
23-May-20 08:26 33.933633 -118.399303 174 117ft 0kts
23-May-20 08:27 33.933633 -118.399303 174 117ft 0kts
23-May-20 08:28 33.933633 -118.399303 174 117ft 0kts
23-May-20 08:29 33.933633 -118.399303 174 117ft 0kts
23-May-20 08:30 33.933633 -118.399303 174 117ft 0kts
23-May-20 08:31 33.933633 -118.399303 174 117ft 0kts
23-May-20 08:32 33.933591 -118.399297 174 117ft 0kts
23-May-20 08:33 33.933476 -118.399283 174 117ft 0kts
23-May-20 08:34 33.933365 -118.399268 173 117ft 0kts
23-May-20 08:35 33.933606 -118.398358 39 117ft 4kts
23-May-20 08:36 33.934756 -118.396201 82 110ft 12kts
23-May-20 08:37 33.935311 -118.390779 83 104ft 17kts
23-May-20 08:38 33.935871 -118.385298 83 102ft 16kts
23-May-20 08:39 33.936465 -118.382815 0 99ft 0kts
23-May-20 08:40 33.936465 -118.382815 0 99ft 0kts
23-May-20 08:41 33.937346 -118.383013 274 100ft 4kts
23-May-20 08:42 33.934735 -118.404414 264 499ft 93kts
23-May-20 08:43 33.930486 -118.435748 263 1386ft 96kts
23-May-20 08:44 33.913070 -118.457745 212 2250ft 97kts
23-May-20 08:45 33.886789 -118.460888 174 3042ft 102kts
23-May-20 08:46 33.858039 -118.455286 148 3837ft 108kts
23-May-20 08:47 33.829433 -118.430978 145 4058ft 147kts
23-May-20 08:48 33.794669 -118.401512 145 4065ft 150kts
23-May-20 08:49 33.766172 -118.377639 145 4063ft 103kts
23-May-20 08:50 33.742222 -118.357459 145 4066ft 110kts
23-May-20 08:51 33.716243 -118.335803 145 4066ft 115kts
23-May-20 08:52 33.689473 -118.313498 145 4066ft 118kts
23-May-20 08:53 33.662387 -118.290969 145 4066ft 119kts
23-May-20 08:54 33.658200 -118.259812 46 4066ft 117kts
23-May-20 08:55 33.678092 -118.228727 54 4067ft 117kts
23-May-20 08:56 33.697449 -118.196641 53 4067ft 118kts
23-May-20 08:57 33.716853 -118.164534 54 4066ft 118kts
23-May-20 08:58 33.736338 -118.132418 53 4066ft 119kts
23-May-20 08:59 33.755668 -118.100167 53 4066ft 119kts
23-May-20 09:00 33.775189 -118.068332 53 4066ft 118kts
23-May-20 09:01 33.791584 -118.033991 64 4066ft 119kts
23-May-20 09:02 33.806142 -117.998032 64 4067ft 119kts
23-May-20 09:03 33.820556 -117.962099 63 4066ft 119kts
23-May-20 09:04 33.834996 -117.926121 64 4066ft 120kts
23-May-20 09:05 33.849521 -117.889910 63 4065ft 120kts
23-May-20 09:06 33.864170 -117.853651 64 4067ft 119kts
23-May-20 09:07 33.878502 -117.817709 64 4066ft 119kts
23-May-20 09:08 33.892950 -117.781560 64 4067ft 119kts
23-May-20 09:09 33.907402 -117.745294 64 4066ft 121kts
23-May-20 09:10 33.923838 -117.710946 28 4065ft 118kts
23-May-20 09:11 33.950790 -117.693618 26 3574ft 97kts
23-May-20 09:12 33.965031 -117.712076 235 3572ft 114kts
23-May-20 09:13 33.932536 -117.710152 166 3571ft 136kts
23-May-20 09:14 33.898373 -117.727011 208 3453ft 117kts
23-May-20 09:15 33.872135 -117.744032 207 3458ft 105kts
23-May-20 09:16 33.846606 -117.760317 208 3458ft 103kts
23-May-20 09:17 33.822223 -117.775877 207 2849ft 89kts
23-May-20 09:18 33.798807 -117.791565 209 2605ft 100kts
23-May-20 09:19 33.775446 -117.806688 205 2124ft 106kts
23-May-20 09:20 33.748503 -117.821986 208 1668ft 102kts
23-May-20 09:21 33.726147 -117.837659 205 1034ft 81kts
23-May-20 09:22 33.705270 -117.850339 205 637ft 75kts
23-May-20 09:24 33.688462 -117.860799 205 251ft 64kts
23-May-20 09:25 33.677946 -117.868033 300 60ft 8kts
23-May-20 09:26 33.678088 -117.868353 295 60ft 0kts
23-May-20 09:27 33.678041 -117.868812 229 60ft 6kts
23-May-20 09:28 33.675635 -117.870362 208 60ft 13kts
23-May-20 09:29 33.672866 -117.872092 208 60ft 6kts
23-May-20 09:30 33.672896 -117.873038 28 60ft 0kts
23-May-20 09:31 33.672897 -117.873037 28 60ft 0kts
23-May-20 09:32 33.672897 -117.873037 28 60ft 0kts
23-May-20 09:33 33.672897 -117.873037 28 60ft 0kts
23-May-20 09:34 33.672897 -117.873037 28 60ft 0kts
23-May-20 09:35 33.672897 -117.873037 28 60ft 0kts
23-May-20 09:36 33.672897 -117.873037 28 60ft 0kts
23-May-20 09:37 33.672897 -117.873037 28 60ft 0kts
23-May-20 09:37 33.672897 -117.873037 28 60ft 0kts
23-May-20 09:39 33.672897 -117.873037 28 60ft 0kts

Navigation Log

Ident Type
Flight plan parsing failed, navigation log unavailable